This is the latest recevied weather packets stored in our database for station/object SV2BZQ-2. If no packets are shown the sender has not sent any weather packets the latest 10 day(s).
| Time | Temp. | Humidity | Pressure | Rain* | Wind** | Luminosity | Snow |
|---|---|---|---|---|---|---|---|
| 1778238007 | 18.33° C | 90% | 1015.8 hPa | 3.3 mm | - | 155 W/m² | - |
| 1778237890 | 18.33° C | 90% | 1015.7 hPa | 3.05 mm | - | 153 W/m² | - |
| 1778237767 | 18.33° C | 90% | 1015.9 hPa | 3.3 mm | - | 148 W/m² | - |
| 1778237668 | 18.33° C | 90% | 1015.8 hPa | 3.05 mm | - | 155 W/m² | - |
| 1778237579 | 18.33° C | 90% | 1015.8 hPa | 3.3 mm | - | 167 W/m² | - |
| 1778237473 | 18.89° C | 90% | 1015.9 hPa | 3.3 mm | - | 178 W/m² | - |
| 1778237328 | 18.89° C | 90% | 1015.9 hPa | 3.3 mm | - | 181 W/m² | - |
| 1778237238 | 18.89° C | 90% | 1015.9 hPa | 3.3 mm | - | 178 W/m² | - |
| 1778237156 | 18.89° C | 90% | 1015.9 hPa | 3.3 mm | - | 178 W/m² | - |
| 1778237075 | 18.89° C | 90% | 1015.9 hPa | 3.3 mm | - | 181 W/m² | - |
| 1778236855 | 18.89° C | 90% | 1015.9 hPa | 3.3 mm | - | 181 W/m² | - |
| 1778236750 | 18.89° C | 90% | 1015.9 hPa | 3.3 mm | - | 179 W/m² | - |
| 1778236626 | 18.89° C | 90% | 1015.9 hPa | 3.05 mm | - | 176 W/m² | - |
| 1778236529 | 18.89° C | 90% | 1016 hPa | 3.05 mm | - | 169 W/m² | - |
| 1778236446 | 18.89° C | 90% | 1015.9 hPa | 2.79 mm | - | 153 W/m² | - |
| 1778236194 | 18.89° C | 90% | 1015.9 hPa | 3.05 mm | - | 149 W/m² | - |
| 1778236065 | 18.89° C | 90% | 1015.9 hPa | 2.79 mm | - | 144 W/m² | - |
| 1778236021 | 16.11° C | 85% | 1015.5 hPa | 0 mm | - | 0 W/m² | - |
| 1778235953 | 18.89° C | 90% | 1015.9 hPa | 3.05 mm | - | 127 W/m² | - |
| 1778235847 | 18.89° C | 90% | 1015.9 hPa | 3.05 mm | - | 118 W/m² | - |
| 1778235758 | 18.89° C | 89% | 1015.9 hPa | 3.05 mm | - | 120 W/m² | - |
| 1778235679 | 18.89° C | 89% | 1016 hPa | 3.05 mm | - | 128 W/m² | - |
| 1778235576 | 18.89° C | 89% | 1016 hPa | 2.79 mm | - | 141 W/m² | - |
| 1778235342 | 18.89° C | 89% | 1016 hPa | 3.05 mm | - | 149 W/m² | - |
| 1778235223 | 18.89° C | 89% | 1016.1 hPa | 2.79 mm | - | 142 W/m² | - |
* Rain latest hour (hover to see other rain measurements)
** Current wind speed in m/s (hover to see current wind gust speed)